createdAt,value
2022-10-13T00:02:42.163Z,9.04
2022-10-13T00:09:02.195Z,8.99
2022-10-13T00:15:25.168Z,8.98
2022-10-13T00:21:45.235Z,8.99
2022-10-13T00:28:08.226Z,9.03
2022-10-13T00:34:28.165Z,9.05
2022-10-13T00:40:51.164Z,9.02
2022-10-13T00:47:11.292Z,8.96
2022-10-13T00:53:34.246Z,8.93
2022-10-13T00:59:54.194Z,8.93
2022-10-13T01:06:21.118Z,8.91
2022-10-13T01:12:37.318Z,8.91
2022-10-13T01:19:00.199Z,8.92
2022-10-13T01:25:20.214Z,8.91
2022-10-13T01:31:43.257Z,8.9
2022-10-13T01:38:03.165Z,8.84
2022-10-13T01:44:26.207Z,8.82
2022-10-13T01:50:46.222Z,8.84
2022-10-13T01:57:09.178Z,8.83
2022-10-13T02:03:29.167Z,8.82
2022-10-13T02:09:52.215Z,8.84
2022-10-13T02:16:12.185Z,8.81
2022-10-13T02:22:35.172Z,8.8
2022-10-13T02:28:55.259Z,8.8
2022-10-13T02:35:18.188Z,8.79
2022-10-13T02:41:38.166Z,8.8
2022-10-13T02:48:01.225Z,8.82
2022-10-13T02:54:21.206Z,8.82
2022-10-13T03:00:44.313Z,8.83
2022-10-13T03:07:04.262Z,8.86
2022-10-13T03:13:27.228Z,8.88
2022-10-13T03:37:08.108Z,8.97
2022-10-13T03:43:28.149Z,8.99
2022-10-13T03:49:51.195Z,9
2022-10-13T03:56:11.267Z,8.99
2022-10-13T04:02:34.202Z,8.99
2022-10-13T04:08:54.257Z,8.98
2022-10-13T04:15:17.290Z,9
2022-10-13T04:21:37.246Z,9.03
2022-10-13T04:28:00.280Z,9.04
2022-10-13T04:34:20.246Z,9.04
2022-10-13T04:40:43.211Z,9.07
2022-10-13T04:47:03.173Z,9.1
2022-10-13T04:53:26.289Z,9.15
2022-10-13T04:59:46.146Z,9.2
2022-10-13T05:06:09.153Z,9.24
2022-10-13T05:12:29.247Z,9.26
2022-10-13T05:18:52.225Z,9.28
2022-10-13T05:25:12.248Z,9.32
2022-10-13T05:31:35.212Z,9.38
2022-10-13T05:37:55.204Z,9.42
2022-10-13T05:44:18.181Z,9.44
2022-10-13T05:50:38.365Z,9.44
2022-10-13T05:57:01.234Z,9.44
2022-10-13T06:03:21.204Z,9.44
2022-10-13T06:09:44.257Z,9.45
2022-10-13T06:16:04.218Z,9.48
2022-10-13T06:22:27.246Z,9.51
2022-10-13T06:28:50.088Z,9.55
2022-10-13T06:35:10.164Z,9.59
2022-10-13T06:41:30.174Z,9.62
2022-10-13T06:47:53.291Z,9.68
2022-10-13T06:54:13.228Z,9.74
2022-10-13T07:00:36.340Z,9.81
2022-10-13T07:06:56.194Z,9.92
2022-10-13T07:13:19.335Z,10.02
2022-10-13T07:19:40.288Z,10.11
2022-10-13T07:26:03.187Z,10.21
2022-10-13T07:32:23.158Z,10.3
2022-10-13T07:38:46.198Z,10.38
2022-10-13T07:45:06.208Z,10.46
2022-10-13T07:51:29.204Z,10.56
2022-10-13T07:57:49.231Z,10.68
2022-10-13T08:04:12.295Z,10.8
2022-10-13T08:10:32.238Z,10.94
2022-10-13T08:16:55.219Z,11.11
2022-10-13T08:23:15.251Z,11.28
2022-10-13T08:46:02.202Z,11.92
2022-10-13T08:52:25.176Z,12.15
2022-10-13T08:58:45.239Z,12.43
2022-10-13T09:05:08.301Z,12.73
2022-10-13T09:11:28.296Z,13
2022-10-13T09:17:51.186Z,13.28
2022-10-13T09:24:11.223Z,13.53
2022-10-13T09:30:34.211Z,13.7
2022-10-13T09:36:54.157Z,13.84
2022-10-13T09:43:17.310Z,13.92
2022-10-13T09:49:37.158Z,13.99
2022-10-13T09:56:00.191Z,14.08
2022-10-13T10:02:21.256Z,14.23
2022-10-13T10:09:01.945Z,14.4
2022-10-13T10:15:03.202Z,14.57
2022-10-13T10:21:26.330Z,14.67
2022-10-13T10:27:46.206Z,14.75
2022-10-13T10:34:10.810Z,14.81
2022-10-13T10:40:29.197Z,14.98
2022-10-13T10:46:52.195Z,15.2
2022-10-13T10:53:12.153Z,15.39
2022-10-13T10:59:35.249Z,15.54
2022-10-13T11:05:55.178Z,15.73
2022-10-13T11:12:18.437Z,15.9
2022-10-13T11:18:38.254Z,16.12
2022-10-13T11:25:01.172Z,16.35
2022-10-13T11:31:21.208Z,16.55
2022-10-13T11:37:51.678Z,16.69
2022-10-13T11:44:04.174Z,16.83
2022-10-13T11:50:27.173Z,16.95
2022-10-13T11:56:48.596Z,17.03
2022-10-13T12:03:10.219Z,17.06
2022-10-13T12:09:30.150Z,17.02
2022-10-13T12:15:53.215Z,16.99
2022-10-13T12:22:13.167Z,16.98
2022-10-13T12:28:36.230Z,17.05
2022-10-13T12:34:56.196Z,17.08
2022-10-13T12:41:19.159Z,17.08
2022-10-13T12:47:39.167Z,17.1
2022-10-13T12:54:02.242Z,17.08
2022-10-13T13:00:22.172Z,17.05
2022-10-13T13:06:45.191Z,17.06
2022-10-13T13:13:05.184Z,17.06
2022-10-13T13:19:28.207Z,17.04
2022-10-13T13:25:48.195Z,16.98
2022-10-13T13:32:11.208Z,16.97
2022-10-13T13:38:31.159Z,16.92
2022-10-13T13:44:54.161Z,16.89
2022-10-13T14:07:21.481Z,16.77
2022-10-13T14:13:44.170Z,16.67
2022-10-13T14:20:04.183Z,16.6
2022-10-13T14:26:27.216Z,16.52
2022-10-13T14:32:47.168Z,16.45
2022-10-13T14:39:10.199Z,16.32
2022-10-13T14:45:30.215Z,16.08
2022-10-13T14:51:53.226Z,15.88
2022-10-13T14:58:13.172Z,15.74
2022-10-13T15:04:36.187Z,15.64
2022-10-13T15:10:56.200Z,15.6
2022-10-13T15:17:19.165Z,15.6
2022-10-13T15:23:39.201Z,15.61
2022-10-13T15:30:02.166Z,15.6
2022-10-13T15:36:22.194Z,15.53
2022-10-13T15:42:45.239Z,15.46
2022-10-13T15:49:05.156Z,15.36
2022-10-13T15:55:28.217Z,15.25
2022-10-13T16:01:48.246Z,15.15
2022-10-13T16:08:11.179Z,15.08
2022-10-13T16:14:31.191Z,15.01
2022-10-13T16:20:54.231Z,14.92
2022-10-13T16:27:14.273Z,14.84
2022-10-13T16:33:37.161Z,14.75
2022-10-13T16:39:57.318Z,14.68
2022-10-13T16:46:20.221Z,14.61
2022-10-13T16:52:40.238Z,14.54
2022-10-13T16:59:03.189Z,14.47
2022-10-13T17:05:23.186Z,14.4
2022-10-13T17:11:46.186Z,14.32
2022-10-13T17:18:06.206Z,14.26
2022-10-13T17:24:29.169Z,14.22
2022-10-13T17:30:49.176Z,14.16
2022-10-13T17:37:12.241Z,14.08
2022-10-13T17:43:32.167Z,14.04
2022-10-13T17:49:55.285Z,13.99
2022-10-13T17:56:15.254Z,13.96
2022-10-13T18:02:38.206Z,13.95
2022-10-13T18:08:58.287Z,13.94
2022-10-13T18:15:21.167Z,13.94
2022-10-13T18:21:41.206Z,13.95
2022-10-13T18:28:04.170Z,13.94
2022-10-13T18:34:24.226Z,13.94
2022-10-13T18:40:47.169Z,13.95
2022-10-13T18:47:07.197Z,13.95
2022-10-13T18:53:30.234Z,13.96
2022-10-13T19:16:18.721Z,13.99
2022-10-13T19:22:38.147Z,13.99
2022-10-13T19:29:01.252Z,13.99
2022-10-13T19:35:21.198Z,13.99
2022-10-13T19:41:44.214Z,13.97
2022-10-13T19:48:04.164Z,13.94
2022-10-13T19:54:31.551Z,13.91
2022-10-13T20:00:47.285Z,13.91
2022-10-13T20:07:10.178Z,13.9
2022-10-13T20:13:30.209Z,13.85
2022-10-13T20:19:53.155Z,13.82
2022-10-13T20:26:13.146Z,13.78
2022-10-13T20:32:36.206Z,13.7
2022-10-13T20:38:56.159Z,13.67
2022-10-13T20:45:19.215Z,13.66
2022-10-13T20:51:39.448Z,13.63
2022-10-13T20:58:02.174Z,13.59
2022-10-13T21:04:22.174Z,13.55
2022-10-13T21:10:45.199Z,13.53
2022-10-13T21:17:05.208Z,13.51
2022-10-13T21:23:28.187Z,13.48
2022-10-13T21:29:48.166Z,13.43
2022-10-13T21:36:11.191Z,13.4
2022-10-13T21:42:31.165Z,13.34
2022-10-13T21:48:54.201Z,13.27
2022-10-13T21:55:14.195Z,13.22
2022-10-13T22:19:41.159Z,13.22
2022-10-13T22:26:01.169Z,13.23
2022-10-13T22:32:24.149Z,13.26
2022-10-13T22:38:44.198Z,13.27
2022-10-13T22:45:07.170Z,13.25
2022-10-13T22:51:27.250Z,13.23
2022-10-13T22:57:50.252Z,13.2
2022-10-13T23:04:10.188Z,13.16
2022-10-13T23:10:33.187Z,13.12
2022-10-13T23:16:53.182Z,13.08
2022-10-13T23:23:16.181Z,13.06
2022-10-13T23:29:36.171Z,13.04
2022-10-13T23:35:59.242Z,13.01
2022-10-13T23:42:19.198Z,13
2022-10-13T23:48:42.247Z,12.99
2022-10-13T23:55:02.197Z,12.96
